Leesville, Louisiana
Current Conditions -  °F | °C
As of 8:45 AM on Sunday 23 Nov 2014 (Local Time) from KPOE Reporting Station
Overcast Overcast  
Wind Chill: 61°   Ceiling: 600
Heat Index: 61°   Visibility: 10mi
Dew Point: 59°   Wind: 8mph
Humidity: 94%   Direction: 230°SW
Pressure: 29.6"   Gusts: 18mph
Location:  31.14°N, 93.26°W
Report Text: KPOE 231445Z AUTO 23007G16KT 10SM OVC006 16/15 A2960 RMK AO2
Loading
Personal Weather Stations






























Interactive Weather Map New forecast layout! Learn more

10-Day Weather Forecast

Advertisements
Track Severe Weather on mobile